createdAt,value
2019-03-23T00:00:20.756Z,101296.19
2019-03-23T00:01:25.639Z,101299.58
2019-03-23T00:02:31.457Z,101296.67
2019-03-23T00:03:35.786Z,101292.94
2019-03-23T00:04:40.330Z,101298.42
2019-03-23T00:05:44.617Z,101294.51
2019-03-23T00:06:48.794Z,101294.09
2019-03-23T00:07:53.155Z,101299.12
2019-03-23T00:08:57.326Z,101292.94
2019-03-23T00:10:01.550Z,101294.02
2019-03-23T00:11:05.783Z,101295.18
2019-03-23T00:12:10.205Z,101287.42
2019-03-23T00:13:14.541Z,101294.72
2019-03-23T00:14:18.718Z,101294.14
2019-03-23T00:15:23.902Z,101299.34
2019-03-23T00:16:28.144Z,101295.80
2019-03-23T00:17:32.339Z,101302.67
2019-03-23T00:18:36.582Z,101297.69
2019-03-23T00:19:40.879Z,101305.27
2019-03-23T00:20:45.285Z,101305.26
2019-03-23T00:21:49.485Z,101313.09
2019-03-23T00:22:53.658Z,101311.55
2019-03-23T00:23:57.841Z,101311.89
2019-03-23T00:25:02.087Z,101307.53
2019-03-23T00:26:06.362Z,101313.97
2019-03-23T00:27:10.614Z,101306.75
2019-03-23T00:28:16.426Z,101311.08
2019-03-23T00:29:23.096Z,101311.55
2019-03-23T00:30:27.250Z,101307.72
2019-03-23T00:31:31.702Z,101308.77
2019-03-23T00:32:36.901Z,101309.42
2019-03-23T00:33:41.122Z,101316.19
2019-03-23T00:34:45.253Z,101311.33
2019-03-23T00:35:49.751Z,101313.11
2019-03-23T00:36:55.093Z,101311.72
2019-03-23T00:37:59.638Z,101322.22
2019-03-23T00:39:05.843Z,101319.69
2019-03-23T00:40:10.256Z,101317.06
2019-03-23T00:41:17.361Z,101312.75
2019-03-23T00:42:21.607Z,101317.28
2019-03-23T00:43:25.980Z,101322.30
2019-03-23T00:44:30.155Z,101320.38
2019-03-23T00:45:34.339Z,101316.89
2019-03-23T00:46:38.721Z,101321.84
2019-03-23T00:47:42.894Z,101320.75
2019-03-23T00:48:48.909Z,101318.93
2019-03-23T00:49:53.178Z,101321.46
2019-03-23T00:50:57.422Z,101315.38
2019-03-23T00:52:01.603Z,101314.00
2019-03-23T00:53:05.813Z,101313.89
2019-03-23T00:54:10.166Z,101317.46
2019-03-23T00:55:14.435Z,101316.22
2019-03-23T00:56:18.610Z,101310.52
2019-03-23T00:57:24.418Z,101316.67
2019-03-23T00:58:28.704Z,101314.06
2019-03-23T00:59:32.845Z,101313.44
2019-03-23T01:00:37.090Z,101311.28
2019-03-23T01:01:41.259Z,101315.45
2019-03-23T01:02:45.524Z,101308.14
2019-03-23T01:03:49.879Z,101316.70
2019-03-23T01:04:54.060Z,101320.16
2019-03-23T01:05:58.247Z,101317.56
2019-03-23T01:07:02.495Z,101314.20
2019-03-23T01:08:06.675Z,101313.98
2019-03-23T01:09:10.990Z,101312.29
2019-03-23T01:10:15.168Z,101319.00
2019-03-23T01:11:19.347Z,101315.60
2019-03-23T01:12:23.687Z,101311.70
2019-03-23T01:13:27.873Z,101316.80
2019-03-23T01:14:32.543Z,101296.88
2019-03-23T01:15:37.084Z,101311.97
2019-03-23T01:16:41.195Z,101313.14
2019-03-23T01:17:46.997Z,101312.29
2019-03-23T01:18:51.173Z,101305.70
2019-03-23T01:19:55.388Z,101308.54
2019-03-23T01:20:59.600Z,101315.08
2019-03-23T01:22:03.787Z,101310.38
2019-03-23T01:23:08.910Z,101309.78
2019-03-23T01:24:13.090Z,101306.69
2019-03-23T01:25:17.406Z,101307.45
2019-03-23T01:26:21.592Z,101311.41
2019-03-23T01:27:25.770Z,101310.38
2019-03-23T01:28:30.334Z,101315.39
2019-03-23T01:29:34.557Z,101316.00
2019-03-23T01:30:38.767Z,101310.92
2019-03-23T01:31:42.965Z,101315.30
2019-03-23T01:32:47.144Z,101312.34
2019-03-23T01:33:53.060Z,101316.24
2019-03-23T01:34:57.266Z,101315.56
2019-03-23T01:36:01.562Z,101312.03
2019-03-23T01:37:05.734Z,101316.14
2019-03-23T01:38:09.905Z,101314.76
2019-03-23T01:39:14.078Z,101319.33
2019-03-23T01:40:18.255Z,101314.18
2019-03-23T01:41:24.098Z,101312.74
2019-03-23T01:42:29.245Z,101314.13
2019-03-23T01:43:33.425Z,101316.37
2019-03-23T01:44:39.317Z,101319.68
2019-03-23T01:45:43.532Z,101322.32
2019-03-23T01:46:47.918Z,101323.22
2019-03-23T01:47:52.184Z,101321.83
2019-03-23T01:48:56.371Z,101322.14
2019-03-23T01:50:00.602Z,101318.30
2019-03-23T01:51:04.858Z,101316.73
2019-03-23T01:52:09.454Z,101314.36
2019-03-23T01:53:16.625Z,101312.48
2019-03-23T01:54:21.714Z,101310.98
2019-03-23T01:55:27.001Z,101312.92
2019-03-23T01:56:31.247Z,101310.91
2019-03-23T01:57:37.249Z,101309.57
2019-03-23T01:58:41.698Z,101302.23
2019-03-23T01:59:45.883Z,101306.58
2019-03-23T02:00:50.186Z,101302.27
2019-03-23T02:01:54.365Z,101302.31
2019-03-23T02:02:58.870Z,101299.75
2019-03-23T02:04:03.043Z,101301.77
2019-03-23T02:05:08.848Z,101302.84
2019-03-23T02:06:13.042Z,101293.30
2019-03-23T02:07:17.205Z,101294.28
2019-03-23T02:08:23.056Z,101300.68
2019-03-23T02:09:27.229Z,101299.70
2019-03-23T02:10:33.019Z,101300.75
2019-03-23T02:11:37.345Z,101294.73
2019-03-23T02:12:41.596Z,101304.53
2019-03-23T02:13:47.175Z,101300.20
2019-03-23T02:14:51.649Z,101301.52
2019-03-23T02:15:56.150Z,101303.98
2019-03-23T02:17:00.329Z,101301.83
2019-03-23T02:18:06.402Z,101298.37
2019-03-23T02:19:10.648Z,101298.37
2019-03-23T02:20:14.901Z,101294.74
2019-03-23T02:21:19.076Z,101295.73
2019-03-23T02:22:23.659Z,101289.10
2019-03-23T02:23:29.347Z,101284.74
2019-03-23T02:24:33.939Z,101288.81
2019-03-23T02:25:38.110Z,101291.05
2019-03-23T02:26:42.285Z,101294.18
2019-03-23T02:27:46.458Z,101294.67
2019-03-23T02:28:50.702Z,101286.12
2019-03-23T02:29:56.530Z,101282.19
2019-03-23T02:31:02.353Z,101293.55
2019-03-23T02:32:06.697Z,101293.50
2019-03-23T02:33:10.900Z,101290.06
2019-03-23T02:34:16.261Z,101291.41
2019-03-23T02:35:20.717Z,101293.42
2019-03-23T02:36:24.910Z,101292.13
2019-03-23T02:37:29.088Z,101287.69
2019-03-23T02:38:33.420Z,101293.15
2019-03-23T02:39:37.604Z,101294.18
2019-03-23T02:40:42.208Z,101290.06
2019-03-23T02:41:46.392Z,101296.95
2019-03-23T02:42:50.696Z,101293.19
2019-03-23T02:43:54.870Z,101299.14
2019-03-23T02:45:00.678Z,101290.06
2019-03-23T02:46:04.855Z,101295.48
2019-03-23T02:47:09.073Z,101297.45
2019-03-23T02:48:13.241Z,101300.22
2019-03-23T02:49:17.485Z,101301.42
2019-03-23T02:50:22.634Z,101299.52
2019-03-23T02:51:26.810Z,101298.55
2019-03-23T02:52:30.991Z,101301.64
2019-03-23T02:53:36.431Z,101297.58
2019-03-23T02:54:40.607Z,101297.35
2019-03-23T02:55:44.955Z,101294.30
2019-03-23T02:56:49.125Z,101296.72
2019-03-23T02:57:54.690Z,101291.08
2019-03-23T02:58:58.909Z,101292.28
2019-03-23T03:00:04.223Z,101293.05
2019-03-23T03:01:10.022Z,101287.28
2019-03-23T03:02:17.313Z,101287.38
2019-03-23T03:03:21.850Z,101285.05
2019-03-23T03:04:29.476Z,101278.02
2019-03-23T03:05:35.870Z,101291.78
2019-03-23T03:06:40.042Z,101282.28
2019-03-23T03:07:44.361Z,101285.80
2019-03-23T03:08:49.637Z,101276.75
2019-03-23T03:09:53.976Z,101284.73
2019-03-23T03:10:58.140Z,101285.16
2019-03-23T03:12:02.311Z,101282.92
2019-03-23T03:13:06.826Z,101287.93
2019-03-23T03:14:11.071Z,101285.38
2019-03-23T03:15:15.278Z,101284.84
2019-03-23T03:16:19.524Z,101284.83
2019-03-23T03:17:23.701Z,101280.04
2019-03-23T03:18:27.877Z,101284.93
2019-03-23T03:19:32.136Z,101289.21
2019-03-23T03:20:38.061Z,101287.52
2019-03-23T03:21:42.262Z,101293.88
2019-03-23T03:22:46.437Z,101294.00
2019-03-23T03:23:50.719Z,101288.58
2019-03-23T03:24:55.188Z,101289.44
2019-03-23T03:26:02.413Z,101291.65
2019-03-23T03:27:06.923Z,101287.80
2019-03-23T03:28:11.099Z,101285.66
2019-03-23T03:29:15.279Z,101295.69
2019-03-23T03:30:19.462Z,101292.59
2019-03-23T03:31:25.406Z,101292.72
2019-03-23T03:32:29.578Z,101292.94
2019-03-23T03:33:34.818Z,101293.44
2019-03-23T03:34:38.996Z,101296.12
2019-03-23T03:35:43.166Z,101294.42
2019-03-23T03:36:47.388Z,101299.42
2019-03-23T03:37:56.960Z,101296.66
2019-03-23T03:38:57.565Z,101297.19
2019-03-23T03:40:01.773Z,101285.27
2019-03-23T03:41:08.697Z,101295.06
2019-03-23T03:42:12.956Z,101294.65
2019-03-23T03:43:17.204Z,101293.05
2019-03-23T03:44:23.065Z,101295.60
2019-03-23T03:45:28.009Z,101298.48
2019-03-23T03:46:32.184Z,101304.25
2019-03-23T03:47:41.078Z,101299.78
2019-03-23T03:48:44.077Z,101299.13
2019-03-23T03:49:48.316Z,101300.09
2019-03-23T03:50:52.443Z,101298.70
2019-03-23T03:51:56.619Z,101298.82
2019-03-23T03:53:00.817Z,101297.75
2019-03-23T03:54:05.124Z,101297.00
2019-03-23T03:55:09.331Z,101302.54
2019-03-23T03:56:13.574Z,101289.64
2019-03-23T03:57:19.164Z,101297.75
2019-03-23T03:58:23.404Z,101294.23
2019-03-23T03:59:28.161Z,101301.16
2019-03-23T04:00:32.372Z,101300.09
2019-03-23T04:01:36.617Z,101296.80
2019-03-23T04:02:40.825Z,101296.88
2019-03-23T04:03:46.087Z,101294.13
2019-03-23T04:04:52.199Z,101302.00
2019-03-23T04:05:56.411Z,101301.59
2019-03-23T04:07:00.582Z,101299.13
2019-03-23T04:08:11.300Z,101311.80
2019-03-23T04:09:10.641Z,101310.02
2019-03-23T04:10:14.876Z,101316.31
2019-03-23T04:11:19.108Z,101310.42
2019-03-23T04:12:23.335Z,101314.17
2019-03-23T04:13:27.514Z,101313.64
2019-03-23T04:14:31.732Z,101320.96
2019-03-23T04:15:35.916Z,101316.82
2019-03-23T04:16:40.124Z,101326.19
2019-03-23T04:17:44.399Z,101327.47
2019-03-23T04:18:48.602Z,101333.22
2019-03-23T04:19:52.779Z,101326.42
2019-03-23T04:20:56.956Z,101332.56
2019-03-23T04:22:01.462Z,101335.14
2019-03-23T04:23:05.649Z,101333.84
2019-03-23T04:24:09.831Z,101335.33
2019-03-23T04:25:14.003Z,101333.52
2019-03-23T04:26:18.184Z,101333.07
2019-03-23T04:27:22.728Z,101333.39
2019-03-23T04:28:26.872Z,101334.20
2019-03-23T04:29:31.051Z,101331.86
2019-03-23T04:30:35.399Z,101328.03
2019-03-23T04:31:39.577Z,101325.27
2019-03-23T04:32:43.847Z,101327.73
2019-03-23T04:33:48.043Z,101324.17
2019-03-23T04:34:52.250Z,101324.07
2019-03-23T04:35:56.445Z,101324.23
2019-03-23T04:37:01.687Z,101326.47
2019-03-23T04:38:06.011Z,101327.63
2019-03-23T04:39:10.503Z,101325.61
2019-03-23T04:40:14.762Z,101328.80
2019-03-23T04:41:18.956Z,101332.27
2019-03-23T04:42:23.142Z,101324.07
2019-03-23T04:43:27.430Z,101323.48
2019-03-23T04:44:31.608Z,101329.55
2019-03-23T04:45:35.784Z,101326.67
2019-03-23T04:46:39.963Z,101327.84
2019-03-23T04:47:44.146Z,101324.83
2019-03-23T04:48:48.749Z,101325.17
2019-03-23T04:49:52.993Z,101329.50
2019-03-23T04:50:57.172Z,101324.64
2019-03-23T04:52:01.350Z,101331.50
2019-03-23T04:53:05.543Z,101323.15
2019-03-23T04:54:09.741Z,101322.16
2019-03-23T04:55:14.085Z,101324.66
2019-03-23T04:56:18.305Z,101326.67
2019-03-23T04:57:22.549Z,101323.20
2019-03-23T04:58:26.775Z,101336.62
2019-03-23T04:59:31.027Z,101337.04
2019-03-23T05:00:35.434Z,101336.14
2019-03-23T05:01:39.664Z,101329.00
2019-03-23T05:02:43.860Z,101331.92
2019-03-23T05:03:48.013Z,101332.47
2019-03-23T05:04:52.245Z,101328.64
2019-03-23T05:05:56.397Z,101335.23
2019-03-23T05:07:00.576Z,101328.09
2019-03-23T05:08:04.817Z,101325.14
2019-03-23T05:09:09.466Z,101327.26
2019-03-23T05:10:13.731Z,101326.04
2019-03-23T05:11:17.955Z,101329.70
2019-03-23T05:12:22.200Z,101329.86
2019-03-23T05:13:26.482Z,101327.69
2019-03-23T05:14:30.687Z,101324.02
2019-03-23T05:15:37.220Z,101327.36
2019-03-23T05:16:41.610Z,101324.00
2019-03-23T05:17:45.785Z,101327.03
2019-03-23T05:18:51.577Z,101328.89
2019-03-23T05:19:57.316Z,101336.06
2019-03-23T05:21:01.499Z,101334.17
2019-03-23T05:22:05.819Z,101340.07
2019-03-23T05:23:09.994Z,101332.95
2019-03-23T05:24:14.240Z,101334.02
2019-03-23T05:25:21.674Z,101335.06
2019-03-23T05:26:25.944Z,101329.80
2019-03-23T05:27:30.097Z,101334.70
2019-03-23T05:28:34.385Z,101339.70
2019-03-23T05:29:38.551Z,101336.78
2019-03-23T05:30:42.814Z,101338.84
2019-03-23T05:31:47.203Z,101342.37
2019-03-23T05:32:53.013Z,101338.96
2019-03-23T05:33:57.567Z,101335.00
2019-03-23T05:35:01.829Z,101339.38
2019-03-23T05:36:06.083Z,101341.34
2019-03-23T05:37:11.065Z,101336.52
2019-03-23T05:38:15.239Z,101340.02
2019-03-23T05:39:19.566Z,101346.20
2019-03-23T05:40:23.800Z,101339.53
2019-03-23T05:41:30.815Z,101342.23
2019-03-23T05:42:34.669Z,101338.50
2019-03-23T05:43:38.854Z,101342.25
2019-03-23T05:44:43.030Z,101349.02
2019-03-23T05:45:47.547Z,101351.02
2019-03-23T05:46:54.176Z,101347.20
2019-03-23T05:47:57.652Z,101345.41
2019-03-23T05:49:01.820Z,101340.59
2019-03-23T05:50:07.339Z,101349.80
2019-03-23T05:51:11.620Z,101349.94
2019-03-23T05:52:15.822Z,101349.56
2019-03-23T05:53:21.066Z,101350.17
2019-03-23T05:54:25.276Z,101351.28
2019-03-23T05:55:30.389Z,101357.84
2019-03-23T05:56:36.198Z,101357.98
2019-03-23T05:57:40.398Z,101357.13
2019-03-23T05:58:44.574Z,101356.28
2019-03-23T05:59:48.860Z,101360.28
2019-03-23T06:00:52.988Z,101360.81
2019-03-23T06:01:57.231Z,101363.46
2019-03-23T06:03:01.634Z,101364.11
2019-03-23T06:04:07.423Z,101363.84
2019-03-23T06:05:12.542Z,101366.88
2019-03-23T06:06:16.716Z,101369.31
2019-03-23T06:07:22.589Z,101370.55
2019-03-23T06:08:26.859Z,101381.28
2019-03-23T06:09:31.039Z,101377.74
2019-03-23T06:10:35.259Z,101383.00
2019-03-23T06:11:39.502Z,101367.84
2019-03-23T06:12:43.673Z,101380.05
2019-03-23T06:13:48.006Z,101373.91
2019-03-23T06:14:52.321Z,101375.30
2019-03-23T06:15:56.705Z,101373.42
2019-03-23T06:17:00.941Z,101373.89
2019-03-23T06:18:06.751Z,101367.42
2019-03-23T06:19:11.049Z,101370.84
2019-03-23T06:20:16.017Z,101367.14
2019-03-23T06:21:20.331Z,101370.66
2019-03-23T06:22:24.609Z,101372.98
2019-03-23T06:23:28.778Z,101376.30
2019-03-23T06:24:33.017Z,101372.13
2019-03-23T06:25:37.372Z,101372.13
2019-03-23T06:26:41.734Z,101375.75
2019-03-23T06:27:45.954Z,101371.19
2019-03-23T06:28:51.827Z,101375.77
2019-03-23T06:29:56.061Z,101379.48
2019-03-23T06:31:00.274Z,101376.49
2019-03-23T06:32:04.571Z,101379.90
2019-03-23T06:33:08.750Z,101346.27
2019-03-23T06:34:12.998Z,101378.53
2019-03-23T06:35:17.300Z,101378.54
2019-03-23T06:36:21.661Z,101375.00
2019-03-23T06:37:26.192Z,101374.54
2019-03-23T06:38:30.366Z,101376.77
2019-03-23T06:39:34.681Z,101367.81
2019-03-23T06:40:38.941Z,101377.58
2019-03-23T06:41:43.142Z,101375.25
2019-03-23T06:42:47.432Z,101378.23
2019-03-23T06:43:51.619Z,101386.34
2019-03-23T06:44:56.000Z,101383.44
2019-03-23T06:46:00.174Z,101377.34
2019-03-23T06:47:04.562Z,101385.73
2019-03-23T06:48:08.721Z,101382.02
2019-03-23T06:49:12.891Z,101380.41
2019-03-23T06:50:17.069Z,101380.96
2019-03-23T06:51:21.252Z,101382.69
2019-03-23T06:52:25.470Z,101377.80
2019-03-23T06:53:29.642Z,101377.89
2019-03-23T06:54:33.815Z,101377.78
2019-03-23T06:55:38.003Z,101380.73
2019-03-23T06:56:42.197Z,101383.72
2019-03-23T06:57:46.370Z,101379.75
2019-03-23T06:58:50.628Z,101380.22
2019-03-23T06:59:54.788Z,101376.80
2019-03-23T07:00:59.017Z,101383.00
2019-03-23T07:02:04.005Z,101385.53
2019-03-23T07:03:08.211Z,101380.65
2019-03-23T07:04:12.383Z,101377.42
2019-03-23T07:05:16.562Z,101378.95
2019-03-23T07:06:20.809Z,101384.77
2019-03-23T07:07:24.988Z,101379.44
2019-03-23T07:08:32.083Z,101377.90
2019-03-23T07:09:35.420Z,101379.36
2019-03-23T07:10:40.565Z,101380.11
2019-03-23T07:11:44.738Z,101377.63
2019-03-23T07:12:48.995Z,101381.34
2019-03-23T07:13:53.229Z,101385.24
2019-03-23T07:14:57.404Z,101385.89
2019-03-23T07:16:01.607Z,101389.39
2019-03-23T07:17:05.948Z,101383.14
2019-03-23T07:18:10.126Z,101385.61
2019-03-23T07:19:14.411Z,101382.42
2019-03-23T07:20:18.919Z,101380.66
2019-03-23T07:21:23.098Z,101384.56
2019-03-23T07:22:27.343Z,101386.92
2019-03-23T07:23:31.523Z,101389.08
2019-03-23T07:24:35.867Z,101381.81
2019-03-23T07:25:40.045Z,101384.18
2019-03-23T07:26:44.297Z,101379.52
2019-03-23T07:27:48.506Z,101384.86
2019-03-23T07:28:52.693Z,101382.00
2019-03-23T07:29:56.968Z,101378.34
2019-03-23T07:31:01.145Z,101367.08
2019-03-23T07:32:06.252Z,101377.00
2019-03-23T07:33:10.570Z,101379.16
2019-03-23T07:34:14.753Z,101386.52
2019-03-23T07:35:18.996Z,101387.44
2019-03-23T07:36:23.120Z,101390.89
2019-03-23T07:37:27.374Z,101389.37
2019-03-23T07:38:31.594Z,101387.55
2019-03-23T07:39:37.408Z,101394.05
2019-03-23T07:40:41.710Z,101393.50
2019-03-23T07:41:47.502Z,101397.53
2019-03-23T07:42:51.754Z,101390.27
2019-03-23T07:43:55.991Z,101390.52
2019-03-23T07:45:00.339Z,101391.99
2019-03-23T07:46:06.224Z,101393.89
2019-03-23T07:47:10.453Z,101394.02
2019-03-23T07:48:14.591Z,101394.23
2019-03-23T07:49:18.791Z,101392.35
2019-03-23T07:50:23.039Z,101394.03
2019-03-23T07:51:27.291Z,101396.75
2019-03-23T07:52:31.536Z,101396.23
2019-03-23T07:53:38.316Z,101392.68
2019-03-23T07:54:42.516Z,101395.40
2019-03-23T07:55:46.787Z,101391.45
2019-03-23T07:56:51.034Z,101403.30
2019-03-23T07:57:55.240Z,101393.77
2019-03-23T07:58:59.595Z,101401.29
2019-03-23T08:00:07.214Z,101399.99
2019-03-23T08:01:11.416Z,101396.06
2019-03-23T08:02:15.597Z,101404.83
2019-03-23T08:03:19.834Z,101406.20
2019-03-23T08:04:23.993Z,101404.38
2019-03-23T08:05:28.245Z,101401.44
2019-03-23T08:06:32.429Z,101403.81
2019-03-23T08:07:36.723Z,101404.44
2019-03-23T08:08:41.972Z,101399.67
2019-03-23T08:09:46.217Z,101396.98
2019-03-23T08:10:51.407Z,101391.75
2019-03-23T08:11:55.595Z,101397.28
2019-03-23T08:13:00.199Z,101398.07
2019-03-23T08:14:04.369Z,101402.02
2019-03-23T08:15:13.742Z,101402.80
2019-03-23T08:16:17.895Z,101398.69
2019-03-23T08:17:22.078Z,101400.89
2019-03-23T08:18:26.292Z,101391.34
2019-03-23T08:19:30.480Z,101394.08
2019-03-23T08:20:34.841Z,101400.69
2019-03-23T08:21:39.011Z,101404.21
2019-03-23T08:22:44.842Z,101402.80
2019-03-23T08:23:49.085Z,101399.84
2019-03-23T08:24:53.224Z,101400.33
2019-03-23T08:25:57.407Z,101402.83
2019-03-23T08:27:01.656Z,101409.34
2019-03-23T08:28:06.431Z,101405.50
2019-03-23T08:29:10.642Z,101408.52
2019-03-23T08:30:14.826Z,101408.70
2019-03-23T08:31:19.004Z,101408.42
2019-03-23T08:32:23.252Z,101405.36
2019-03-23T08:33:27.513Z,101407.38
2019-03-23T08:34:31.717Z,101399.52
2019-03-23T08:35:35.962Z,101414.05
2019-03-23T08:36:40.139Z,101409.91
2019-03-23T08:37:44.390Z,101414.50
2019-03-23T08:38:48.579Z,101419.24
2019-03-23T08:39:52.807Z,101417.59
2019-03-23T08:40:57.383Z,101414.94
2019-03-23T08:42:01.568Z,101407.42
2019-03-23T08:43:05.914Z,101410.01
2019-03-23T08:44:10.099Z,101412.55
2019-03-23T08:45:14.305Z,101403.76
2019-03-23T08:46:18.481Z,101426.01
2019-03-23T08:47:22.660Z,101417.61
2019-03-23T08:48:27.043Z,101409.97
2019-03-23T08:49:31.293Z,101412.44
2019-03-23T08:50:35.537Z,101412.47
2019-03-23T08:51:39.724Z,101407.66
2019-03-23T08:52:43.976Z,101410.58
2019-03-23T08:53:48.727Z,101408.61
2019-03-23T08:54:52.912Z,101408.61
2019-03-23T08:55:57.158Z,101402.58
2019-03-23T08:57:01.412Z,101396.78
2019-03-23T08:58:05.668Z,101404.78
2019-03-23T08:59:09.882Z,101408.38
2019-03-23T09:00:14.127Z,101407.67
2019-03-23T09:01:18.374Z,101405.07
2019-03-23T09:02:22.628Z,101403.40
2019-03-23T09:03:28.439Z,101406.20
2019-03-23T09:04:32.880Z,101406.41
2019-03-23T09:05:37.129Z,101402.78
2019-03-23T09:06:41.522Z,101397.95
2019-03-23T09:07:47.190Z,101408.88
2019-03-23T09:08:51.412Z,101410.37
2019-03-23T09:09:59.411Z,101402.07
2019-03-23T09:11:01.564Z,101405.72
2019-03-23T09:12:05.744Z,101404.23
2019-03-23T09:13:10.991Z,101402.69
2019-03-23T09:14:15.184Z,101401.80
2019-03-23T09:15:20.453Z,101390.06
2019-03-23T09:16:24.564Z,101394.73
2019-03-23T09:17:29.154Z,101392.45
2019-03-23T09:18:35.144Z,101388.72
2019-03-23T09:19:39.334Z,101384.83
2019-03-23T09:20:43.513Z,101375.22
2019-03-23T09:21:49.534Z,101375.39
2019-03-23T09:22:53.808Z,101373.16
2019-03-23T09:23:58.128Z,101368.20
2019-03-23T09:25:02.480Z,101367.76
2019-03-23T09:26:06.727Z,101370.23
2019-03-23T09:27:12.639Z,101367.76
2019-03-23T09:28:21.976Z,101366.49
2019-03-23T10:02:31.126Z,101360.02
2019-03-23T10:03:36.142Z,101342.86
2019-03-23T10:04:40.325Z,101344.94
2019-03-23T10:05:44.604Z,101351.03
2019-03-23T10:06:48.786Z,101347.02
2019-03-23T10:07:52.974Z,101340.90
2019-03-23T10:08:58.124Z,101335.66
2019-03-23T10:10:02.430Z,101335.44
2019-03-23T10:11:07.676Z,101331.77
2019-03-23T10:12:11.855Z,101332.26
2019-03-23T10:13:16.031Z,101335.08
2019-03-23T10:14:20.294Z,101334.44
2019-03-23T10:15:24.475Z,101332.22
2019-03-23T10:16:28.771Z,101334.77
2019-03-23T10:17:33.023Z,101326.64
2019-03-23T10:18:37.275Z,101335.45
2019-03-23T10:19:41.450Z,101333.58
2019-03-23T10:20:45.629Z,101333.37
2019-03-23T10:21:49.935Z,101331.37
2019-03-23T10:22:54.182Z,101325.59
2019-03-23T10:23:58.368Z,101321.70
2019-03-23T10:25:02.547Z,101329.18
2019-03-23T10:26:07.803Z,101327.10
2019-03-23T10:27:12.102Z,101329.58
2019-03-23T10:28:16.313Z,101321.86
2019-03-23T10:29:21.431Z,101331.36
2019-03-23T10:30:25.659Z,101323.88
2019-03-23T10:31:29.842Z,101327.57
2019-03-23T10:32:34.109Z,101324.46
2019-03-23T10:33:38.294Z,101324.42
2019-03-23T10:34:42.482Z,101323.10
2019-03-23T10:35:46.703Z,101322.27
2019-03-23T10:36:50.958Z,101319.52
2019-03-23T10:37:55.187Z,101321.06
2019-03-23T10:38:59.464Z,101318.72
2019-03-23T10:40:07.484Z,101326.17
2019-03-23T10:41:11.811Z,101325.14
2019-03-23T10:42:16.332Z,101317.90
2019-03-23T10:43:20.620Z,101322.66
2019-03-23T10:44:24.862Z,101317.48
2019-03-23T10:45:29.048Z,101325.17
2019-03-23T10:46:33.325Z,101318.84
2019-03-23T10:47:37.719Z,101325.09
2019-03-23T10:48:41.873Z,101318.27
2019-03-23T10:49:46.047Z,101312.48
2019-03-23T10:50:50.320Z,101315.22
2019-03-23T10:51:54.534Z,101312.89
2019-03-23T10:52:58.732Z,101321.16
2019-03-23T10:54:04.129Z,101317.45
2019-03-23T10:55:09.337Z,101315.78
2019-03-23T10:56:13.613Z,101315.33
2019-03-23T10:57:17.882Z,101313.92
2019-03-23T10:58:22.122Z,101312.77
2019-03-23T10:59:27.975Z,101305.75
2019-03-23T11:00:32.285Z,101312.69
2019-03-23T11:01:36.461Z,101305.74
2019-03-23T11:02:40.639Z,101302.66
2019-03-23T11:03:44.821Z,101311.84
2019-03-23T11:04:49.122Z,101307.23
2019-03-23T11:05:53.306Z,101316.38
2019-03-23T11:06:57.557Z,101307.08
2019-03-23T11:08:01.754Z,101316.53
2019-03-23T11:09:06.698Z,101312.23
2019-03-23T11:10:13.040Z,101315.95
2019-03-23T11:11:18.262Z,101303.38
2019-03-23T11:12:22.441Z,101296.45
2019-03-23T11:13:26.624Z,101305.33
2019-03-23T11:14:30.799Z,101306.78
2019-03-23T11:15:35.006Z,101306.91
2019-03-23T11:16:39.181Z,101302.81
2019-03-23T11:17:43.430Z,101302.88
2019-03-23T11:18:47.617Z,101306.88
2019-03-23T11:19:51.801Z,101314.41
2019-03-23T11:20:56.000Z,101309.86
2019-03-23T11:22:00.183Z,101309.80
2019-03-23T11:23:04.882Z,101311.19
2019-03-23T11:24:09.062Z,101307.80
2019-03-23T11:25:13.315Z,101306.78
2019-03-23T11:26:17.525Z,101312.70
2019-03-23T11:27:21.773Z,101307.77
2019-03-23T11:28:26.023Z,101305.69
2019-03-23T11:29:30.205Z,101305.69
2019-03-23T11:30:34.491Z,101308.58
2019-03-23T11:31:38.708Z,101313.09
2019-03-23T11:32:42.889Z,101308.57
2019-03-23T11:33:47.163Z,101307.81
2019-03-23T11:34:51.511Z,101309.06
2019-03-23T11:35:58.016Z,101309.27
2019-03-23T11:37:01.689Z,101307.80
2019-03-23T11:38:05.948Z,101305.84
2019-03-23T11:39:10.197Z,101301.20
2019-03-23T11:40:14.379Z,101307.61
2019-03-23T11:41:18.559Z,101305.92
2019-03-23T11:42:22.766Z,101309.39
2019-03-23T11:43:26.945Z,101308.97
2019-03-23T11:44:31.135Z,101304.37
2019-03-23T11:45:35.325Z,101309.52
2019-03-23T11:46:39.508Z,101307.94
2019-03-23T11:47:43.720Z,101306.27
2019-03-23T11:48:47.902Z,101298.70
2019-03-23T11:49:52.088Z,101304.60
2019-03-23T11:50:56.273Z,101304.17
2019-03-23T11:52:00.464Z,101307.05
2019-03-23T11:53:04.750Z,101304.00
2019-03-23T11:54:08.930Z,101303.80
2019-03-23T11:55:14.191Z,101301.47
2019-03-23T11:56:18.362Z,101300.56
2019-03-23T11:57:22.549Z,101309.44
2019-03-23T11:58:26.755Z,101308.28
2019-03-23T11:59:30.950Z,101312.08
2019-03-23T12:00:35.192Z,101312.77
2019-03-23T12:01:39.469Z,101306.19
2019-03-23T12:02:44.708Z,101307.37
2019-03-23T12:03:48.965Z,101301.53
2019-03-23T12:04:53.262Z,101306.44
2019-03-23T12:05:57.416Z,101303.67
2019-03-23T12:07:01.681Z,101305.61
2019-03-23T12:08:05.868Z,101299.49
2019-03-23T12:09:10.141Z,101302.13
2019-03-23T12:10:14.294Z,101301.77
2019-03-23T12:11:18.478Z,101297.05
2019-03-23T12:12:22.658Z,101305.91
2019-03-23T12:13:26.910Z,101301.77
2019-03-23T12:14:31.148Z,101305.55
2019-03-23T12:15:35.314Z,101298.37
2019-03-23T12:16:39.502Z,101296.86
2019-03-23T12:17:43.755Z,101293.76
2019-03-23T12:18:47.937Z,101295.77
2019-03-23T12:19:52.143Z,101290.29
2019-03-23T12:20:56.445Z,101290.52
2019-03-23T12:22:00.692Z,101283.58
2019-03-23T12:23:04.950Z,101285.38
2019-03-23T12:24:09.122Z,101289.76
2019-03-23T12:25:13.301Z,101279.97
2019-03-23T12:26:17.506Z,101278.20
2019-03-23T12:27:21.690Z,101282.98
2019-03-23T12:28:25.883Z,101284.23
2019-03-23T12:29:30.063Z,101289.68
2019-03-23T12:30:34.294Z,101279.04
2019-03-23T12:31:38.475Z,101279.64
2019-03-23T12:32:42.661Z,101274.84
2019-03-23T12:33:47.805Z,101276.06
2019-03-23T12:34:52.053Z,101277.72
2019-03-23T12:35:56.274Z,101273.31
2019-03-23T12:37:00.459Z,101287.41
2019-03-23T12:38:04.705Z,101277.02
2019-03-23T12:39:08.886Z,101276.77
2019-03-23T12:40:13.332Z,101277.50
2019-03-23T12:41:22.947Z,101278.47
2019-03-23T12:42:23.487Z,101278.83
2019-03-23T12:43:27.671Z,101272.95
2019-03-23T12:44:31.879Z,101281.31
2019-03-23T12:45:36.058Z,101280.25
2019-03-23T12:46:47.906Z,101280.14
2019-03-23T12:47:46.143Z,101272.95
2019-03-23T12:48:50.322Z,101276.19